PWSweather.com
Personal Weather Stations
Station Observations
IDOLNYU03
Dolnyśląsk, SmolecPL 55-080

DolnyśląskSmolecPL 55-080

Lat: 51.086984, Lon: 16.906237

Elevation: 404

Station Type: WH 2080

http://pogoda-smolec.pl

Latest ConditionsUpdated 9:48:01 PM GMT+01:01 Wednesday, Jun 20, 2018
Currently Today's Max Today's Min Today's Average
Temperature 72.9°F22.7°C 87.4°F30.8°C 66.0°F18.9°C 76.9°F24.9°C
Dew Point 58.1°F14.5°C 61.4°F16.3°C 54.4°F12.4°C 57.8°F14.3°C
Winds 1.6 mph SW2.6 kmh SW 6.0 mph -9.7 kmh - - 1.9 mph 3.1 kmh
Wind Gusts 2.2 mph3.5 kmh 8.3 mph13.4 kmh - -
Humidity 60% 76% 34% 54%
Pressure 29.82 in1009.8 mb 30.02 in1016.6 mb 29.81 in1009.5 mb -
Hour Temp Dew Point Humidity Winds Wind Gusts Pressure Precip Precip Rate Daily Precip Total
09:48 PM 72.9°F22.7°C 58.1°F14.5°C 60% 1.6 mph SW2.6 kmh SW 2.2 mph3.5 kmh 29.82 in1009.8 mb 0.00 in0.0 mm 0.00 in0.0 mm 0.00 in0.0 mm
09:43 PM 73.0°F22.8°C 57.8°F14.3°C 59% 0.7 mph S1.1 kmh S 2.2 mph3.5 kmh 29.82 in1009.8 mb 0.00 in0.0 mm 0.00 in0.0 mm 0.00 in0.0 mm
09:38 PM 73.4°F23.0°C 58.2°F14.6°C 59% 1.6 mph S2.6 kmh S 2.2 mph3.5 kmh 29.82 in1009.8 mb 0.00 in0.0 mm 0.00 in0.0 mm 0.00 in0.0 mm
09:32 PM 73.8°F23.2°C 58.0°F14.4°C 58% 1.6 mph S2.6 kmh S 3.1 mph5.0 kmh 29.82 in1009.8 mb 0.00 in0.0 mm 0.00 in0.0 mm 0.00 in0.0 mm
09:27 PM 73.9°F23.3°C 58.2°F14.6°C 58% 1.6 mph S2.6 kmh S 2.2 mph3.5 kmh 29.82 in1009.8 mb 0.00 in0.0 mm 0.00 in0.0 mm 0.00 in0.0 mm
09:21 PM 74.3°F23.5°C 58.1°F14.5°C 57% 2.2 mph S3.5 kmh S 3.8 mph6.1 kmh 29.82 in1009.8 mb 0.00 in0.0 mm 0.00 in0.0 mm 0.00 in0.0 mm
09:16 PM 74.5°F23.6°C 58.2°F14.6°C 57% 1.6 mph S2.6 kmh S 3.1 mph5.0 kmh 29.82 in1009.8 mb 0.00 in0.0 mm 0.00 in0.0 mm 0.00 in0.0 mm
09:11 PM 74.7°F23.7°C 57.9°F14.4°C 56% 2.2 mph SE3.5 kmh SE 3.1 mph5.0 kmh 29.82 in1009.8 mb 0.00 in0.0 mm 0.00 in0.0 mm 0.00 in0.0 mm
09:06 PM 75.0°F23.9°C 57.7°F14.3°C 55% 3.1 mph S5.0 kmh S 3.8 mph6.1 kmh 29.82 in1009.8 mb 0.00 in0.0 mm 0.00 in0.0 mm 0.00 in0.0 mm
09:01 PM 75.0°F23.9°C 57.7°F14.3°C 55% 3.1 mph S5.0 kmh S 3.8 mph6.1 kmh 29.82 in1009.8 mb 0.00 in0.0 mm 0.00 in0.0 mm 0.00 in0.0 mm
08:56 PM 75.2°F24.0°C 57.4°F14.1°C 54% 2.2 mph S3.5 kmh S 3.8 mph6.1 kmh 29.82 in1009.8 mb 0.00 in0.0 mm 0.00 in0.0 mm 0.00 in0.0 mm
08:51 PM 75.6°F24.2°C 57.2°F14.0°C 53% 1.6 mph S2.6 kmh S 3.1 mph5.0 kmh 29.83 in1010.2 mb 0.00 in0.0 mm 0.00 in0.0 mm 0.00 in0.0 mm
08:46 PM 75.7°F24.3°C 57.4°F14.1°C 53% 0.7 mph S1.1 kmh S 2.2 mph3.5 kmh 29.82 in1009.8 mb 0.00 in0.0 mm 0.00 in0.0 mm 0.00 in0.0 mm
08:40 PM 76.1°F24.5°C 57.2°F14.0°C 52% 0.7 mph SE1.1 kmh SE 2.2 mph3.5 kmh 29.83 in1010.2 mb 0.00 in0.0 mm 0.00 in0.0 mm 0.00 in0.0 mm
08:35 PM 76.5°F24.7°C 57.5°F14.2°C 52% 0.7 mph SE1.1 kmh SE 1.6 mph2.6 kmh 29.82 in1009.8 mb 0.00 in0.0 mm 0.00 in0.0 mm 0.00 in0.0 mm
08:30 PM 76.6°F24.8°C 57.7°F14.3°C 52% 1.6 mph S2.6 kmh S 2.2 mph3.5 kmh 29.82 in1009.8 mb 0.00 in0.0 mm 0.00 in0.0 mm 0.00 in0.0 mm
08:24 PM 77.0°F25.0°C 56.9°F13.8°C 50% 2.2 mph S3.5 kmh S 3.1 mph5.0 kmh 29.82 in1009.8 mb 0.00 in0.0 mm 0.00 in0.0 mm 0.00 in0.0 mm
08:19 PM 77.2°F25.1°C 57.1°F13.9°C 50% 1.6 mph S2.6 kmh S 3.1 mph5.0 kmh 29.82 in1009.8 mb 0.00 in0.0 mm 0.00 in0.0 mm 0.00 in0.0 mm
08:14 PM 77.4°F25.2°C 57.2°F14.0°C 50% 1.6 mph S2.6 kmh S 2.2 mph3.5 kmh 29.82 in1009.8 mb 0.00 in0.0 mm 0.00 in0.0 mm 0.00 in0.0 mm
08:08 PM 77.7°F25.4°C 57.0°F13.9°C 49% 0.7 mph SE1.1 kmh SE 2.2 mph3.5 kmh 29.82 in1009.8 mb 0.00 in0.0 mm 0.00 in0.0 mm 0.00 in0.0 mm
08:03 PM 77.9°F25.5°C 57.2°F14.0°C 49% 2.2 mph S3.5 kmh S 3.1 mph5.0 kmh 29.82 in1009.8 mb 0.00 in0.0 mm 0.00 in0.0 mm 0.00 in0.0 mm
07:58 PM 78.3°F25.7°C 56.9°F13.8°C 48% 2.2 mph S3.5 kmh S 3.1 mph5.0 kmh 29.81 in1009.5 mb 0.00 in0.0 mm 0.00 in0.0 mm 0.00 in0.0 mm
07:52 PM 78.4°F25.8°C 57.1°F13.9°C 48% 2.2 mph SE3.5 kmh SE 3.8 mph6.1 kmh 29.82 in1009.8 mb 0.00 in0.0 mm 0.00 in0.0 mm 0.00 in0.0 mm
07:47 PM 78.8°F26.0°C 56.2°F13.4°C 46% 2.2 mph S3.5 kmh S 3.1 mph5.0 kmh 29.82 in1009.8 mb 0.00 in0.0 mm 0.00 in0.0 mm 0.00 in0.0 mm
07:42 PM 79.0°F26.1°C 56.4°F13.6°C 46% 2.2 mph S3.5 kmh S 3.8 mph6.1 kmh 29.82 in1009.8 mb 0.00 in0.0 mm 0.00 in0.0 mm 0.00 in0.0 mm
07:36 PM 79.3°F26.3°C 56.1°F13.4°C 45% 2.2 mph SSW3.5 kmh SSW 3.8 mph6.1 kmh 29.82 in1009.8 mb 0.00 in0.0 mm 0.00 in0.0 mm 0.00 in0.0 mm
07:31 PM 79.5°F26.4°C 56.3°F13.5°C 45% 3.1 mph SW5.0 kmh SW 5.4 mph8.7 kmh 29.82 in1009.8 mb 0.00 in0.0 mm 0.00 in0.0 mm 0.00 in0.0 mm
07:26 PM 79.9°F26.6°C 56.0°F13.3°C 44% 3.1 mph S5.0 kmh S 4.5 mph7.2 kmh 29.82 in1009.8 mb 0.00 in0.0 mm 0.00 in0.0 mm 0.00 in0.0 mm
07:20 PM 80.2°F26.8°C 56.3°F13.5°C 44% 4.5 mph S7.2 kmh S 6.0 mph9.7 kmh 29.82 in1009.8 mb 0.00 in0.0 mm 0.00 in0.0 mm 0.00 in0.0 mm
07:15 PM 80.6°F27.0°C 56.0°F13.3°C 43% 2.2 mph SE3.5 kmh SE 3.8 mph6.1 kmh 29.82 in1009.8 mb 0.00 in0.0 mm 0.00 in0.0 mm 0.00 in0.0 mm
07:10 PM 80.6°F27.0°C 55.4°F13.0°C 42% 2.2 mph SSW3.5 kmh SSW 3.8 mph6.1 kmh 29.82 in1009.8 mb 0.00 in0.0 mm 0.00 in0.0 mm 0.00 in0.0 mm
07:04 PM 81.0°F27.2°C 55.7°F13.2°C 42% 2.2 mph SW3.5 kmh SW 3.8 mph6.1 kmh 29.82 in1009.8 mb 0.00 in0.0 mm 0.00 in0.0 mm 0.00 in0.0 mm
06:58 PM 81.0°F27.2°C 55.7°F13.2°C 42% 3.1 mph S5.0 kmh S 4.5 mph7.2 kmh 29.82 in1009.8 mb 0.00 in0.0 mm 0.00 in0.0 mm 0.00 in0.0 mm
06:54 PM 81.3°F27.4°C 55.3°F12.9°C 41% 3.8 mph S6.1 kmh S 4.5 mph7.2 kmh 29.82 in1009.8 mb 0.00 in0.0 mm 0.00 in0.0 mm 0.00 in0.0 mm
06:49 PM 81.5°F27.5°C 55.5°F13.1°C 41% 3.1 mph S5.0 kmh S 5.4 mph8.7 kmh 29.82 in1009.8 mb 0.00 in0.0 mm 0.00 in0.0 mm 0.00 in0.0 mm
06:44 PM 81.7°F27.6°C 55.7°F13.2°C 41% 3.1 mph S5.0 kmh S 4.5 mph7.2 kmh 29.82 in1009.8 mb 0.00 in0.0 mm 0.00 in0.0 mm 0.00 in0.0 mm
06:39 PM 81.9°F27.7°C 55.1°F12.8°C 40% 2.2 mph S3.5 kmh S 4.5 mph7.2 kmh 29.82 in1009.8 mb 0.00 in0.0 mm 0.00 in0.0 mm 0.00 in0.0 mm
06:34 PM 82.2°F27.9°C 55.5°F13.1°C 40% 5.4 mph S8.7 kmh S 6.9 mph11.1 kmh 29.82 in1009.8 mb 0.00 in0.0 mm 0.00 in0.0 mm 0.00 in0.0 mm
06:29 PM 82.6°F28.1°C 57.1°F13.9°C 42% 3.8 mph SE6.1 kmh SE 6.0 mph9.7 kmh 29.82 in1009.8 mb 0.00 in0.0 mm 0.00 in0.0 mm 0.00 in0.0 mm
06:24 PM 82.9°F28.3°C 57.5°F14.2°C 42% 4.5 mph SE7.2 kmh SE 6.9 mph11.1 kmh 29.82 in1009.8 mb 0.00 in0.0 mm 0.00 in0.0 mm 0.00 in0.0 mm
06:19 PM 83.1°F28.4°C 56.9°F13.8°C 41% 1.6 mph S2.6 kmh S 3.1 mph5.0 kmh 29.82 in1009.8 mb 0.00 in0.0 mm 0.00 in0.0 mm 0.00 in0.0 mm
06:14 PM 83.3°F28.5°C 57.1°F13.9°C 41% 3.1 mph S5.0 kmh S 5.4 mph8.7 kmh 29.82 in1009.8 mb 0.00 in0.0 mm 0.00 in0.0 mm 0.00 in0.0 mm
06:09 PM 82.9°F28.3°C 57.5°F14.2°C 42% 3.1 mph SE5.0 kmh SE 3.8 mph6.1 kmh 29.82 in1009.8 mb 0.00 in0.0 mm 0.00 in0.0 mm 0.00 in0.0 mm
06:04 PM 82.9°F28.3°C 57.5°F14.2°C 42% 3.1 mph SE5.0 kmh SE 5.4 mph8.7 kmh 29.83 in1010.2 mb 0.00 in0.0 mm 0.00 in0.0 mm 0.00 in0.0 mm
05:59 PM 82.9°F28.3°C 57.5°F14.2°C 42% 3.8 mph S6.1 kmh S 5.4 mph8.7 kmh 29.83 in1010.2 mb 0.00 in0.0 mm 0.00 in0.0 mm 0.00 in0.0 mm
05:54 PM 82.9°F28.3°C 57.5°F14.2°C 42% 3.8 mph SE6.1 kmh SE 6.0 mph9.7 kmh 29.83 in1010.2 mb 0.00 in0.0 mm 0.00 in0.0 mm 0.00 in0.0 mm
05:49 PM 82.9°F28.3°C 56.1°F13.4°C 40% 2.2 mph SW3.5 kmh SW 3.1 mph5.0 kmh 29.84 in1010.5 mb 0.00 in0.0 mm 0.00 in0.0 mm 0.00 in0.0 mm
05:44 PM 83.1°F28.4°C 56.9°F13.8°C 41% 3.1 mph S5.0 kmh S 4.5 mph7.2 kmh 29.83 in1010.2 mb 0.00 in0.0 mm 0.00 in0.0 mm 0.00 in0.0 mm
05:39 PM 83.5°F28.6°C 55.9°F13.3°C 39% 3.1 mph SW5.0 kmh SW 6.0 mph9.7 kmh 29.83 in1010.2 mb 0.00 in0.0 mm 0.00 in0.0 mm 0.00 in0.0 mm
05:34 PM 83.8°F28.8°C 56.9°F13.8°C 40% 2.2 mph SW3.5 kmh SW 4.5 mph7.2 kmh 29.84 in1010.5 mb 0.00 in0.0 mm 0.00 in0.0 mm 0.00 in0.0 mm
05:29 PM 83.7°F28.7°C 56.7°F13.7°C 40% 3.1 mph S5.0 kmh S 4.5 mph7.2 kmh 29.84 in1010.5 mb 0.00 in0.0 mm 0.00 in0.0 mm 0.00 in0.0 mm
05:24 PM 83.5°F28.6°C 56.6°F13.7°C 40% 1.6 mph SW2.6 kmh SW 3.1 mph5.0 kmh 29.84 in1010.5 mb 0.00 in0.0 mm 0.00 in0.0 mm 0.00 in0.0 mm
05:19 PM 83.8°F28.8°C 56.2°F13.4°C 39% 3.8 mph E6.1 kmh E 5.4 mph8.7 kmh 29.84 in1010.5 mb 0.00 in0.0 mm 0.00 in0.0 mm 0.00 in0.0 mm
05:14 PM 84.0°F28.9°C 56.4°F13.6°C 39% 2.2 mph S3.5 kmh S 3.8 mph6.1 kmh 29.84 in1010.5 mb 0.00 in0.0 mm 0.00 in0.0 mm 0.00 in0.0 mm
05:09 PM 84.4°F29.1°C 56.0°F13.3°C 38% 2.2 mph SW3.5 kmh SW 4.5 mph7.2 kmh 29.84 in1010.5 mb 0.00 in0.0 mm 0.00 in0.0 mm 0.00 in0.0 mm
05:04 PM 83.7°F28.7°C 56.7°F13.7°C 40% 0.7 mph SW1.1 kmh SW 2.2 mph3.5 kmh 29.84 in1010.5 mb 0.00 in0.0 mm 0.00 in0.0 mm 0.00 in0.0 mm
04:59 PM 83.7°F28.7°C 56.7°F13.7°C 40% 1.6 mph SW2.6 kmh SW 3.1 mph5.0 kmh 29.84 in1010.5 mb 0.00 in0.0 mm 0.00 in0.0 mm 0.00 in0.0 mm
04:54 PM 83.8°F28.8°C 56.9°F13.8°C 40% 5.4 mph S8.7 kmh S 7.6 mph12.2 kmh 29.85 in1010.8 mb 0.00 in0.0 mm 0.00 in0.0 mm 0.00 in0.0 mm
04:49 PM 84.0°F28.9°C 56.4°F13.6°C 39% 1.6 mph S2.6 kmh S 3.1 mph5.0 kmh 29.85 in1010.8 mb 0.00 in0.0 mm 0.00 in0.0 mm 0.00 in0.0 mm
04:44 PM 84.6°F29.2°C 55.4°F13.0°C 37% 0.7 mph S1.1 kmh S 2.2 mph3.5 kmh 29.85 in1010.8 mb 0.00 in0.0 mm 0.00 in0.0 mm 0.00 in0.0 mm
04:39 PM 84.9°F29.4°C 56.4°F13.6°C 38% Calm Calm 1.6 mph2.6 kmh 29.85 in1010.8 mb 0.00 in0.0 mm 0.00 in0.0 mm 0.00 in0.0 mm
04:34 PM 84.9°F29.4°C 57.2°F14.0°C 39% 2.2 mph SE3.5 kmh SE 3.8 mph6.1 kmh 29.85 in1010.8 mb 0.00 in0.0 mm 0.00 in0.0 mm 0.00 in0.0 mm
04:29 PM 84.4°F29.1°C 56.7°F13.7°C 39% 3.1 mph SSE5.0 kmh SSE 3.8 mph6.1 kmh 29.85 in1010.8 mb 0.00 in0.0 mm 0.00 in0.0 mm 0.00 in0.0 mm
04:24 PM 84.0°F28.9°C 57.1°F13.9°C 40% 3.1 mph S5.0 kmh S 4.5 mph7.2 kmh 29.86 in1011.2 mb 0.00 in0.0 mm 0.00 in0.0 mm 0.00 in0.0 mm
04:19 PM 84.0°F28.9°C 57.1°F13.9°C 40% 3.1 mph S5.0 kmh S 5.4 mph8.7 kmh 29.86 in1011.2 mb 0.00 in0.0 mm 0.00 in0.0 mm 0.00 in0.0 mm
04:14 PM 83.7°F28.7°C 56.7°F13.7°C 40% 1.6 mph S2.6 kmh S 2.2 mph3.5 kmh 29.85 in1010.8 mb 0.00 in0.0 mm 0.00 in0.0 mm 0.00 in0.0 mm
04:09 PM 83.8°F28.8°C 56.2°F13.4°C 39% 3.1 mph S5.0 kmh S 5.4 mph8.7 kmh 29.85 in1010.8 mb 0.00 in0.0 mm 0.00 in0.0 mm 0.00 in0.0 mm
04:04 PM 83.7°F28.7°C 56.7°F13.7°C 40% 2.2 mph SSE3.5 kmh SSE 3.8 mph6.1 kmh 29.86 in1011.2 mb 0.00 in0.0 mm 0.00 in0.0 mm 0.00 in0.0 mm
03:59 PM 83.1°F28.4°C 56.9°F13.8°C 41% 1.6 mph S2.6 kmh S 3.1 mph5.0 kmh 29.86 in1011.2 mb 0.00 in0.0 mm 0.00 in0.0 mm 0.00 in0.0 mm
03:54 PM 82.8°F28.2°C 55.9°F13.3°C 40% 1.6 mph SE2.6 kmh SE 2.2 mph3.5 kmh 29.87 in1011.5 mb 0.00 in0.0 mm 0.00 in0.0 mm 0.00 in0.0 mm
03:49 PM 82.9°F28.3°C 56.1°F13.4°C 40% 1.6 mph S2.6 kmh S 2.2 mph3.5 kmh 29.87 in1011.5 mb 0.00 in0.0 mm 0.00 in0.0 mm 0.00 in0.0 mm
03:44 PM 83.5°F28.6°C 55.2°F12.9°C 38% 3.1 mph SSE5.0 kmh SSE 5.4 mph8.7 kmh 29.86 in1011.2 mb 0.00 in0.0 mm 0.00 in0.0 mm 0.00 in0.0 mm
03:39 PM 83.8°F28.8°C 55.5°F13.1°C 38% 3.1 mph SSW5.0 kmh SSW 5.4 mph8.7 kmh 29.86 in1011.2 mb 0.00 in0.0 mm 0.00 in0.0 mm 0.00 in0.0 mm
03:34 PM 84.4°F29.1°C 54.5°F12.5°C 36% 4.5 mph S7.2 kmh S 6.9 mph11.1 kmh 29.87 in1011.5 mb 0.00 in0.0 mm 0.00 in0.0 mm 0.00 in0.0 mm
03:29 PM 85.3°F29.6°C 54.5°F12.5°C 35% 3.1 mph S5.0 kmh S 4.5 mph7.2 kmh 29.86 in1011.2 mb 0.00 in0.0 mm 0.00 in0.0 mm 0.00 in0.0 mm
03:24 PM 86.2°F30.1°C 54.5°F12.5°C 34% 3.8 mph SE6.1 kmh SE 6.0 mph9.7 kmh 29.87 in1011.5 mb 0.00 in0.0 mm 0.00 in0.0 mm 0.00 in0.0 mm
03:19 PM 86.5°F30.3°C 55.6°F13.1°C 35% 1.6 mph NE2.6 kmh NE 4.5 mph7.2 kmh 29.87 in1011.5 mb 0.00 in0.0 mm 0.00 in0.0 mm 0.00 in0.0 mm
03:14 PM 86.0°F30.0°C 55.1°F12.8°C 35% 3.8 mph SE6.1 kmh SE 5.4 mph8.7 kmh 29.87 in1011.5 mb 0.00 in0.0 mm 0.00 in0.0 mm 0.00 in0.0 mm
03:09 PM 86.2°F30.1°C 55.3°F12.9°C 35% 4.5 mph SSE7.2 kmh SSE 5.4 mph8.7 kmh 29.87 in1011.5 mb 0.00 in0.0 mm 0.00 in0.0 mm 0.00 in0.0 mm
03:04 PM 86.2°F30.1°C 54.5°F12.5°C 34% 3.1 mph SE5.0 kmh SE 4.5 mph7.2 kmh 29.87 in1011.5 mb 0.00 in0.0 mm 0.00 in0.0 mm 0.00 in0.0 mm
02:59 PM 86.2°F30.1°C 54.5°F12.5°C 34% 5.4 mph SW8.7 kmh SW 7.6 mph12.2 kmh 29.88 in1011.9 mb 0.00 in0.0 mm 0.00 in0.0 mm 0.00 in0.0 mm
02:54 PM 86.0°F30.0°C 55.1°F12.8°C 35% 1.6 mph S2.6 kmh S 3.8 mph6.1 kmh 29.88 in1011.9 mb 0.00 in0.0 mm 0.00 in0.0 mm 0.00 in0.0 mm
02:49 PM 86.2°F30.1°C 54.5°F12.5°C 34% 5.4 mph S8.7 kmh S 7.6 mph12.2 kmh 29.88 in1011.9 mb 0.00 in0.0 mm 0.00 in0.0 mm 0.00 in0.0 mm
02:44 PM 86.9°F30.5°C 55.1°F12.8°C 34% 6.0 mph S9.7 kmh S 8.3 mph13.4 kmh 29.88 in1011.9 mb 0.00 in0.0 mm 0.00 in0.0 mm 0.00 in0.0 mm
02:39 PM 87.3°F30.7°C 55.4°F13.0°C 34% 3.1 mph S5.0 kmh S 4.5 mph7.2 kmh 29.88 in1011.9 mb 0.00 in0.0 mm 0.00 in0.0 mm 0.00 in0.0 mm
02:34 PM 87.4°F30.8°C 55.6°F13.1°C 34% 2.2 mph SE3.5 kmh SE 4.5 mph7.2 kmh 29.88 in1011.9 mb 0.00 in0.0 mm 0.00 in0.0 mm 0.00 in0.0 mm
02:29 PM 87.3°F30.7°C 56.2°F13.4°C 35% 2.2 mph W3.5 kmh W 3.8 mph6.1 kmh 29.88 in1011.9 mb 0.00 in0.0 mm 0.00 in0.0 mm 0.00 in0.0 mm
02:24 PM 86.5°F30.3°C 57.1°F13.9°C 37% 1.6 mph SW2.6 kmh SW 3.1 mph5.0 kmh 29.88 in1011.9 mb 0.00 in0.0 mm 0.00 in0.0 mm 0.00 in0.0 mm
02:19 PM 86.0°F30.0°C 55.9°F13.3°C 36% 0.7 mph SW1.1 kmh SW 2.2 mph3.5 kmh 29.88 in1011.9 mb 0.00 in0.0 mm 0.00 in0.0 mm 0.00 in0.0 mm
02:14 PM 85.8°F29.9°C 55.7°F13.2°C 36% 1.6 mph NW2.6 kmh NW 1.6 mph2.6 kmh 29.89 in1012.2 mb 0.00 in0.0 mm 0.00 in0.0 mm 0.00 in0.0 mm
02:09 PM 85.8°F29.9°C 55.7°F13.2°C 36% 3.8 mph WSW6.1 kmh WSW 6.9 mph11.1 kmh 29.89 in1012.2 mb 0.00 in0.0 mm 0.00 in0.0 mm 0.00 in0.0 mm
02:04 PM 84.6°F29.2°C 55.4°F13.0°C 37% Calm Calm 0.7 mph1.1 kmh 29.89 in1012.2 mb 0.00 in0.0 mm 0.00 in0.0 mm 0.00 in0.0 mm
01:59 PM 84.4°F29.1°C 55.2°F12.9°C 37% 2.2 mph WSW3.5 kmh WSW 3.8 mph6.1 kmh 29.89 in1012.2 mb 0.00 in0.0 mm 0.00 in0.0 mm 0.00 in0.0 mm
01:54 PM 84.4°F29.1°C 55.2°F12.9°C 37% 1.6 mph S2.6 kmh S 3.1 mph5.0 kmh 29.90 in1012.5 mb 0.00 in0.0 mm 0.00 in0.0 mm 0.00 in0.0 mm
01:49 PM 85.1°F29.5°C 55.1°F12.8°C 36% 3.1 mph SSE5.0 kmh SSE 4.5 mph7.2 kmh 29.90 in1012.5 mb 0.00 in0.0 mm 0.00 in0.0 mm 0.00 in0.0 mm
01:44 PM 84.9°F29.4°C 57.2°F14.0°C 39% 2.2 mph NNW3.5 kmh NNW 3.1 mph5.0 kmh 29.90 in1012.5 mb 0.00 in0.0 mm 0.00 in0.0 mm 0.00 in0.0 mm
01:39 PM 84.0°F28.9°C 57.8°F14.3°C 41% 3.8 mph S6.1 kmh S 6.0 mph9.7 kmh 29.91 in1012.9 mb 0.00 in0.0 mm 0.00 in0.0 mm 0.00 in0.0 mm
01:34 PM 83.1°F28.4°C 56.9°F13.8°C 41% 1.6 mph SSW2.6 kmh SSW 2.2 mph3.5 kmh 29.90 in1012.5 mb 0.00 in0.0 mm 0.00 in0.0 mm 0.00 in0.0 mm
01:29 PM 82.6°F28.1°C 57.1°F13.9°C 42% 1.6 mph SW2.6 kmh SW 3.1 mph5.0 kmh 29.91 in1012.9 mb 0.00 in0.0 mm 0.00 in0.0 mm 0.00 in0.0 mm
01:24 PM 81.9°F27.7°C 54.4°F12.4°C 39% 0.7 mph NNW1.1 kmh NNW 1.6 mph2.6 kmh 29.91 in1012.9 mb 0.00 in0.0 mm 0.00 in0.0 mm 0.00 in0.0 mm
01:19 PM 81.7°F27.6°C 55.0°F12.8°C 40% 3.1 mph S5.0 kmh S 4.5 mph7.2 kmh 29.91 in1012.9 mb 0.00 in0.0 mm 0.00 in0.0 mm 0.00 in0.0 mm
01:14 PM 82.0°F27.8°C 55.3°F12.9°C 40% 4.5 mph SE7.2 kmh SE 6.9 mph11.1 kmh 29.91 in1012.9 mb 0.00 in0.0 mm 0.00 in0.0 mm 0.00 in0.0 mm
01:09 PM 82.4°F28.0°C 57.0°F13.9°C 42% 5.4 mph S8.7 kmh S 6.9 mph11.1 kmh 29.91 in1012.9 mb 0.00 in0.0 mm 0.00 in0.0 mm 0.00 in0.0 mm
01:04 PM 83.5°F28.6°C 57.3°F14.1°C 41% 2.2 mph SE3.5 kmh SE 3.1 mph5.0 kmh 29.91 in1012.9 mb 0.00 in0.0 mm 0.00 in0.0 mm 0.00 in0.0 mm
12:59 PM 83.7°F28.7°C 57.4°F14.1°C 41% 0.7 mph E1.1 kmh E 2.2 mph3.5 kmh 29.92 in1013.2 mb 0.00 in0.0 mm 0.00 in0.0 mm 0.00 in0.0 mm
12:54 PM 84.0°F28.9°C 57.8°F14.3°C 41% Calm Calm 0.7 mph1.1 kmh 29.91 in1012.9 mb 0.00 in0.0 mm 0.00 in0.0 mm 0.00 in0.0 mm
12:49 PM 84.0°F28.9°C 58.4°F14.7°C 42% Calm Calm 0.7 mph1.1 kmh 29.92 in1013.2 mb 0.00 in0.0 mm 0.00 in0.0 mm 0.00 in0.0 mm
12:44 PM 84.0°F28.9°C 57.1°F13.9°C 40% 0.7 mph E1.1 kmh E 2.2 mph3.5 kmh 29.92 in1013.2 mb 0.00 in0.0 mm 0.00 in0.0 mm 0.00 in0.0 mm
12:39 PM 84.0°F28.9°C 57.8°F14.3°C 41% 1.6 mph 2.6 kmh 3.1 mph5.0 kmh 29.92 in1013.2 mb 0.00 in0.0 mm 0.00 in0.0 mm 0.00 in0.0 mm
12:34 PM 84.0°F28.9°C 57.8°F14.3°C 41% 2.2 mph S3.5 kmh S 3.8 mph6.1 kmh 29.92 in1013.2 mb 0.00 in0.0 mm 0.00 in0.0 mm 0.00 in0.0 mm
12:29 PM 83.8°F28.8°C 56.9°F13.8°C 40% Calm Calm 0.7 mph1.1 kmh 29.92 in1013.2 mb 0.00 in0.0 mm 0.00 in0.0 mm 0.00 in0.0 mm
12:24 PM 83.8°F28.8°C 58.3°F14.6°C 42% 3.8 mph NW6.1 kmh NW 6.0 mph9.7 kmh 29.93 in1013.5 mb 0.00 in0.0 mm 0.00 in0.0 mm 0.00 in0.0 mm
12:19 PM 84.7°F29.3°C 57.0°F13.9°C 39% 2.2 mph W3.5 kmh W 4.5 mph7.2 kmh 29.93 in1013.5 mb 0.00 in0.0 mm 0.00 in0.0 mm 0.00 in0.0 mm
12:14 PM 84.9°F29.4°C 57.9°F14.4°C 40% 0.7 mph SSW1.1 kmh SSW 1.6 mph2.6 kmh 29.93 in1013.5 mb 0.00 in0.0 mm 0.00 in0.0 mm 0.00 in0.0 mm
12:09 PM 84.9°F29.4°C 58.6°F14.8°C 41% 1.6 mph NW2.6 kmh NW 3.1 mph5.0 kmh 29.93 in1013.5 mb 0.00 in0.0 mm 0.00 in0.0 mm 0.00 in0.0 mm
12:04 PM 84.0°F28.9°C 58.4°F14.7°C 42% 1.6 mph W2.6 kmh W 3.1 mph5.0 kmh 29.93 in1013.5 mb 0.00 in0.0 mm 0.00 in0.0 mm 0.00 in0.0 mm
11:59 AM 84.0°F28.9°C 58.4°F14.7°C 42% 0.7 mph W1.1 kmh W 2.2 mph3.5 kmh 29.94 in1013.9 mb 0.00 in0.0 mm 0.00 in0.0 mm 0.00 in0.0 mm
11:54 AM 83.3°F28.5°C 58.4°F14.7°C 43% 3.8 mph NW6.1 kmh NW 6.0 mph9.7 kmh 29.94 in1013.9 mb 0.00 in0.0 mm 0.00 in0.0 mm 0.00 in0.0 mm
11:49 AM 82.6°F28.1°C 57.8°F14.3°C 43% 2.2 mph 3.5 kmh 3.8 mph6.1 kmh 29.95 in1014.2 mb 0.00 in0.0 mm 0.00 in0.0 mm 0.00 in0.0 mm
11:44 AM 82.0°F27.8°C 57.3°F14.1°C 43% 2.2 mph W3.5 kmh W 3.1 mph5.0 kmh 29.95 in1014.2 mb 0.00 in0.0 mm 0.00 in0.0 mm 0.00 in0.0 mm
11:39 AM 82.0°F27.8°C 57.3°F14.1°C 43% Calm Calm 0.7 mph1.1 kmh 29.95 in1014.2 mb 0.00 in0.0 mm 0.00 in0.0 mm 0.00 in0.0 mm
11:34 AM 82.2°F27.9°C 57.5°F14.2°C 43% 1.6 mph SE2.6 kmh SE 3.1 mph5.0 kmh 29.95 in1014.2 mb 0.00 in0.0 mm 0.00 in0.0 mm 0.00 in0.0 mm
11:29 AM 83.1°F28.4°C 58.3°F14.6°C 43% 2.2 mph 3.5 kmh 3.8 mph6.1 kmh 29.95 in1014.2 mb 0.00 in0.0 mm 0.00 in0.0 mm 0.00 in0.0 mm
11:24 AM 83.7°F28.7°C 58.8°F14.9°C 43% 3.8 mph NW6.1 kmh NW 5.4 mph8.7 kmh 29.95 in1014.2 mb 0.00 in0.0 mm 0.00 in0.0 mm 0.00 in0.0 mm
11:19 AM 83.5°F28.6°C 59.2°F15.1°C 44% Calm Calm 1.6 mph2.6 kmh 29.95 in1014.2 mb 0.00 in0.0 mm 0.00 in0.0 mm 0.00 in0.0 mm
11:14 AM 82.8°F28.2°C 58.6°F14.8°C 44% 1.6 mph E2.6 kmh E 3.1 mph5.0 kmh 29.95 in1014.2 mb 0.00 in0.0 mm 0.00 in0.0 mm 0.00 in0.0 mm
11:09 AM 82.2°F27.9°C 58.7°F14.8°C 45% 3.1 mph S5.0 kmh S 4.5 mph7.2 kmh 29.96 in1014.6 mb 0.00 in0.0 mm 0.00 in0.0 mm 0.00 in0.0 mm
11:04 AM 80.6°F27.0°C 57.3°F14.1°C 45% 5.4 mph S8.7 kmh S 7.6 mph12.2 kmh 29.96 in1014.6 mb 0.00 in0.0 mm 0.00 in0.0 mm 0.00 in0.0 mm
10:59 AM 80.6°F27.0°C 57.3°F14.1°C 45% 3.1 mph SSE5.0 kmh SSE 4.5 mph7.2 kmh 29.96 in1014.6 mb 0.00 in0.0 mm 0.00 in0.0 mm 0.00 in0.0 mm
10:54 AM 80.1°F26.7°C 58.0°F14.4°C 47% 0.7 mph SE1.1 kmh SE 1.6 mph2.6 kmh 29.97 in1014.9 mb 0.00 in0.0 mm 0.00 in0.0 mm 0.00 in0.0 mm
10:49 AM 80.6°F27.0°C 57.3°F14.1°C 45% 0.7 mph SW1.1 kmh SW 2.2 mph3.5 kmh 29.96 in1014.6 mb 0.00 in0.0 mm 0.00 in0.0 mm 0.00 in0.0 mm
10:44 AM 80.6°F27.0°C 57.9°F14.4°C 46% 1.6 mph SSE2.6 kmh SSE 4.5 mph7.2 kmh 29.97 in1014.9 mb 0.00 in0.0 mm 0.00 in0.0 mm 0.00 in0.0 mm
10:39 AM 80.2°F26.8°C 58.2°F14.6°C 47% 1.6 mph S2.6 kmh S 3.1 mph5.0 kmh 29.97 in1014.9 mb 0.00 in0.0 mm 0.00 in0.0 mm 0.00 in0.0 mm
10:34 AM 80.4°F26.9°C 57.7°F14.3°C 46% Calm Calm 0.7 mph1.1 kmh 29.97 in1014.9 mb 0.00 in0.0 mm 0.00 in0.0 mm 0.00 in0.0 mm
10:29 AM 80.4°F26.9°C 58.3°F14.6°C 47% 3.1 mph W5.0 kmh W 5.4 mph8.7 kmh 29.97 in1014.9 mb 0.00 in0.0 mm 0.00 in0.0 mm 0.00 in0.0 mm
10:24 AM 80.6°F27.0°C 57.3°F14.1°C 45% 3.1 mph S5.0 kmh S 4.5 mph7.2 kmh 29.98 in1015.2 mb 0.00 in0.0 mm 0.00 in0.0 mm 0.00 in0.0 mm
10:19 AM 81.3°F27.4°C 57.3°F14.1°C 44% 4.5 mph W7.2 kmh W 6.0 mph9.7 kmh 29.97 in1014.9 mb 0.00 in0.0 mm 0.00 in0.0 mm 0.00 in0.0 mm
10:14 AM 82.2°F27.9°C 57.5°F14.2°C 43% 0.7 mph S1.1 kmh S 1.6 mph2.6 kmh 29.97 in1014.9 mb 0.00 in0.0 mm 0.00 in0.0 mm 0.00 in0.0 mm
10:09 AM 82.4°F28.0°C 58.9°F14.9°C 45% 3.8 mph NW6.1 kmh NW 4.5 mph7.2 kmh 29.97 in1014.9 mb 0.00 in0.0 mm 0.00 in0.0 mm 0.00 in0.0 mm
10:04 AM 82.2°F27.9°C 59.3°F15.2°C 46% 1.6 mph W2.6 kmh W 2.2 mph3.5 kmh 29.97 in1014.9 mb 0.00 in0.0 mm 0.00 in0.0 mm 0.00 in0.0 mm
09:59 AM 81.5°F27.5°C 59.9°F15.5°C 48% 1.6 mph NE2.6 kmh NE 3.1 mph5.0 kmh 29.98 in1015.2 mb 0.00 in0.0 mm 0.00 in0.0 mm 0.00 in0.0 mm
09:54 AM 80.4°F26.9°C 59.5°F15.3°C 49% 3.8 mph 6.1 kmh 4.5 mph7.2 kmh 29.97 in1014.9 mb 0.00 in0.0 mm 0.00 in0.0 mm 0.00 in0.0 mm
09:49 AM 80.2°F26.8°C 58.2°F14.6°C 47% 0.7 mph SE1.1 kmh SE 2.2 mph3.5 kmh 29.97 in1014.9 mb 0.00 in0.0 mm 0.00 in0.0 mm 0.00 in0.0 mm
09:44 AM 80.8°F27.1°C 58.0°F14.4°C 46% 4.5 mph WNW7.2 kmh WNW 6.0 mph9.7 kmh 29.98 in1015.2 mb 0.00 in0.0 mm 0.00 in0.0 mm 0.00 in0.0 mm
09:39 AM 80.4°F26.9°C 59.5°F15.3°C 49% 1.6 mph S2.6 kmh S 2.2 mph3.5 kmh 29.97 in1014.9 mb 0.00 in0.0 mm 0.00 in0.0 mm 0.00 in0.0 mm
09:34 AM 80.2°F26.8°C 58.7°F14.8°C 48% 1.6 mph SW2.6 kmh SW 4.5 mph7.2 kmh 29.97 in1014.9 mb 0.00 in0.0 mm 0.00 in0.0 mm 0.00 in0.0 mm
09:29 AM 79.3°F26.3°C 58.5°F14.7°C 49% 1.6 mph S2.6 kmh S 3.1 mph5.0 kmh 29.98 in1015.2 mb 0.00 in0.0 mm 0.00 in0.0 mm 0.00 in0.0 mm
09:24 AM 78.6°F25.9°C 58.4°F14.7°C 50% 0.7 mph NW1.1 kmh NW 2.2 mph3.5 kmh 29.98 in1015.2 mb 0.00 in0.0 mm 0.00 in0.0 mm 0.00 in0.0 mm
09:19 AM 78.6°F25.9°C 58.4°F14.7°C 50% 1.6 mph W2.6 kmh W 3.1 mph5.0 kmh 29.98 in1015.2 mb 0.00 in0.0 mm 0.00 in0.0 mm 0.00 in0.0 mm
09:14 AM 79.0°F26.1°C 58.2°F14.6°C 49% Calm Calm 0.7 mph1.1 kmh 29.98 in1015.2 mb 0.00 in0.0 mm 0.00 in0.0 mm 0.00 in0.0 mm
09:09 AM 79.3°F26.3°C 58.5°F14.7°C 49% 0.7 mph NE1.1 kmh NE 2.2 mph3.5 kmh 29.98 in1015.2 mb 0.00 in0.0 mm 0.00 in0.0 mm 0.00 in0.0 mm
09:04 AM 80.8°F27.1°C 59.2°F15.1°C 48% 1.6 mph NE2.6 kmh NE 3.1 mph5.0 kmh 29.98 in1015.2 mb 0.00 in0.0 mm 0.00 in0.0 mm 0.00 in0.0 mm
08:59 AM 80.8°F27.1°C 59.2°F15.1°C 48% 0.7 mph 1.1 kmh 1.6 mph2.6 kmh 29.98 in1015.2 mb 0.00 in0.0 mm 0.00 in0.0 mm 0.00 in0.0 mm
08:54 AM 80.8°F27.1°C 59.2°F15.1°C 48% 0.7 mph NNW1.1 kmh NNW 1.6 mph2.6 kmh 29.98 in1015.2 mb 0.00 in0.0 mm 0.00 in0.0 mm 0.00 in0.0 mm
08:49 AM 80.2°F26.8°C 60.4°F15.8°C 51% Calm Calm 1.6 mph2.6 kmh 29.97 in1014.9 mb 0.00 in0.0 mm 0.00 in0.0 mm 0.00 in0.0 mm
08:44 AM 79.7°F26.5°C 59.4°F15.2°C 50% 0.7 mph E1.1 kmh E 2.2 mph3.5 kmh 29.98 in1015.2 mb 0.00 in0.0 mm 0.00 in0.0 mm 0.00 in0.0 mm
08:39 AM 79.2°F26.2°C 59.5°F15.3°C 51% 2.2 mph NE3.5 kmh NE 3.1 mph5.0 kmh 29.98 in1015.2 mb 0.00 in0.0 mm 0.00 in0.0 mm 0.00 in0.0 mm
08:34 AM 78.6°F25.9°C 59.5°F15.3°C 52% 1.6 mph NW2.6 kmh NW 3.1 mph5.0 kmh 29.98 in1015.2 mb 0.00 in0.0 mm 0.00 in0.0 mm 0.00 in0.0 mm
08:29 AM 78.3°F25.7°C 59.2°F15.1°C 52% 2.2 mph E3.5 kmh E 3.8 mph6.1 kmh 29.99 in1015.6 mb 0.00 in0.0 mm 0.00 in0.0 mm 0.00 in0.0 mm
08:24 AM 79.0°F26.1°C 58.7°F14.8°C 50% 2.2 mph NW3.5 kmh NW 3.8 mph6.1 kmh 29.98 in1015.2 mb 0.00 in0.0 mm 0.00 in0.0 mm 0.00 in0.0 mm
08:19 AM 79.2°F26.2°C 60.0°F15.6°C 52% 0.7 mph 1.1 kmh 2.2 mph3.5 kmh 29.98 in1015.2 mb 0.00 in0.0 mm 0.00 in0.0 mm 0.00 in0.0 mm
08:14 AM 78.8°F26.0°C 60.2°F15.7°C 53% 2.2 mph SE3.5 kmh SE 3.1 mph5.0 kmh 29.99 in1015.6 mb 0.00 in0.0 mm 0.00 in0.0 mm 0.00 in0.0 mm
08:09 AM 78.6°F25.9°C 60.6°F15.9°C 54% 1.6 mph 2.6 kmh 3.1 mph5.0 kmh 29.99 in1015.6 mb 0.00 in0.0 mm 0.00 in0.0 mm 0.00 in0.0 mm
08:04 AM 78.3°F25.7°C 60.7°F15.9°C 55% Calm Calm 0.7 mph1.1 kmh 29.99 in1015.6 mb 0.00 in0.0 mm 0.00 in0.0 mm 0.00 in0.0 mm
07:59 AM 77.9°F25.5°C 60.9°F16.1°C 56% 3.1 mph W5.0 kmh W 4.5 mph7.2 kmh 30.00 in1015.9 mb 0.00 in0.0 mm 0.00 in0.0 mm 0.00 in0.0 mm
07:54 AM 77.4°F25.2°C 60.9°F16.1°C 57% 1.6 mph 2.6 kmh 2.2 mph3.5 kmh 30.00 in1015.9 mb 0.00 in0.0 mm 0.00 in0.0 mm 0.00 in0.0 mm
07:49 AM 76.8°F24.9°C 60.9°F16.1°C 58% Calm Calm 1.6 mph2.6 kmh 30.00 in1015.9 mb 0.00 in0.0 mm 0.00 in0.0 mm 0.00 in0.0 mm
07:44 AM 76.6°F24.8°C 60.7°F15.9°C 58% 0.7 mph SE1.1 kmh SE 2.2 mph3.5 kmh 29.99 in1015.6 mb 0.00 in0.0 mm 0.00 in0.0 mm 0.00 in0.0 mm
07:39 AM 76.3°F24.6°C 61.4°F16.3°C 60% 0.7 mph 1.1 kmh 1.6 mph2.6 kmh 29.99 in1015.6 mb 0.00 in0.0 mm 0.00 in0.0 mm 0.00 in0.0 mm
07:34 AM 75.7°F24.3°C 60.9°F16.1°C 60% 0.7 mph NNE1.1 kmh NNE 1.6 mph2.6 kmh 29.99 in1015.6 mb 0.00 in0.0 mm 0.00 in0.0 mm 0.00 in0.0 mm
07:29 AM 75.2°F24.0°C 60.3°F15.7°C 60% 3.1 mph 5.0 kmh 4.5 mph7.2 kmh 29.99 in1015.6 mb 0.00 in0.0 mm 0.00 in0.0 mm 0.00 in0.0 mm
07:24 AM 75.0°F23.9°C 61.1°F16.2°C 62% 1.6 mph E2.6 kmh E 2.2 mph3.5 kmh 30.00 in1015.9 mb 0.00 in0.0 mm 0.00 in0.0 mm 0.00 in0.0 mm
07:19 AM 74.8°F23.8°C 60.9°F16.1°C 62% 2.2 mph NW3.5 kmh NW 3.8 mph6.1 kmh 30.00 in1015.9 mb 0.00 in0.0 mm 0.00 in0.0 mm 0.00 in0.0 mm
07:14 AM 74.7°F23.7°C 60.8°F16.0°C 62% 0.7 mph 1.1 kmh 1.6 mph2.6 kmh 30.00 in1015.9 mb 0.00 in0.0 mm 0.00 in0.0 mm 0.00 in0.0 mm
07:09 AM 74.5°F23.6°C 61.0°F16.1°C 63% 2.2 mph NW3.5 kmh NW 5.4 mph8.7 kmh 29.98 in1015.2 mb 0.00 in0.0 mm 0.00 in0.0 mm 0.00 in0.0 mm
07:04 AM 73.2°F22.9°C 59.9°F15.5°C 63% 1.6 mph NE2.6 kmh NE 3.1 mph5.0 kmh 29.99 in1015.6 mb 0.00 in0.0 mm 0.00 in0.0 mm 0.00 in0.0 mm
06:59 AM 73.2°F22.9°C 59.9°F15.5°C 63% 2.2 mph NE3.5 kmh NE 3.8 mph6.1 kmh 29.99 in1015.6 mb 0.00 in0.0 mm 0.00 in0.0 mm 0.00 in0.0 mm
06:54 AM 72.7°F22.6°C 59.8°F15.4°C 64% 1.6 mph NE2.6 kmh NE 3.1 mph5.0 kmh 29.99 in1015.6 mb 0.00 in0.0 mm 0.00 in0.0 mm 0.00 in0.0 mm
06:49 AM 72.3°F22.4°C 59.9°F15.5°C 65% 3.1 mph NW5.0 kmh NW 4.5 mph7.2 kmh 29.98 in1015.2 mb 0.00 in0.0 mm 0.00 in0.0 mm 0.00 in0.0 mm
06:44 AM 71.8°F22.1°C 59.8°F15.4°C 66% 1.6 mph 2.6 kmh 3.1 mph5.0 kmh 30.00 in1015.9 mb 0.00 in0.0 mm 0.00 in0.0 mm 0.00 in0.0 mm
06:39 AM 71.4°F21.9°C 59.9°F15.5°C 67% 1.6 mph 2.6 kmh 3.1 mph5.0 kmh 30.00 in1015.9 mb 0.00 in0.0 mm 0.00 in0.0 mm 0.00 in0.0 mm
06:34 AM 71.2°F21.8°C 60.1°F15.6°C 68% 4.5 mph NW7.2 kmh NW 6.9 mph11.1 kmh 30.00 in1015.9 mb 0.00 in0.0 mm 0.00 in0.0 mm 0.00 in0.0 mm
06:29 AM 70.7°F21.5°C 60.0°F15.6°C 69% 5.4 mph NW8.7 kmh NW 8.3 mph13.4 kmh 30.00 in1015.9 mb 0.00 in0.0 mm 0.00 in0.0 mm 0.00 in0.0 mm
06:24 AM 70.2°F21.2°C 59.9°F15.5°C 70% 3.1 mph NE5.0 kmh NE 6.9 mph11.1 kmh 30.00 in1015.9 mb 0.00 in0.0 mm 0.00 in0.0 mm 0.00 in0.0 mm
06:19 AM 69.6°F20.9°C 60.2°F15.7°C 72% 2.2 mph NE3.5 kmh NE 4.5 mph7.2 kmh 30.01 in1016.3 mb 0.00 in0.0 mm 0.00 in0.0 mm 0.00 in0.0 mm
06:14 AM 69.1°F20.6°C 60.1°F15.6°C 73% 1.6 mph 2.6 kmh 3.1 mph5.0 kmh 30.01 in1016.3 mb 0.00 in0.0 mm 0.00 in0.0 mm 0.00 in0.0 mm
06:09 AM 68.4°F20.2°C 59.4°F15.2°C 73% 0.7 mph 1.1 kmh 1.6 mph2.6 kmh 30.02 in1016.6 mb 0.00 in0.0 mm 0.00 in0.0 mm 0.00 in0.0 mm
06:04 AM 67.8°F19.9°C 59.2°F15.1°C 74% 2.2 mph WNW3.5 kmh WNW 3.8 mph6.1 kmh 30.01 in1016.3 mb 0.00 in0.0 mm 0.00 in0.0 mm 0.00 in0.0 mm
05:59 AM 67.6°F19.8°C 59.4°F15.2°C 75% 2.2 mph SW3.5 kmh SW 3.8 mph6.1 kmh 30.01 in1016.3 mb 0.00 in0.0 mm 0.00 in0.0 mm 0.00 in0.0 mm
05:54 AM 67.3°F19.6°C 59.1°F15.1°C 75% 3.1 mph NW5.0 kmh NW 5.4 mph8.7 kmh 30.01 in1016.3 mb 0.00 in0.0 mm 0.00 in0.0 mm 0.00 in0.0 mm
05:49 AM 67.1°F19.5°C 58.9°F14.9°C 75% 0.7 mph NW1.1 kmh NW 3.1 mph5.0 kmh 30.01 in1016.3 mb 0.00 in0.0 mm 0.00 in0.0 mm 0.00 in0.0 mm
05:44 AM 66.9°F19.4°C 58.7°F14.8°C 75% 0.7 mph NW1.1 kmh NW 2.2 mph3.5 kmh 30.02 in1016.6 mb 0.00 in0.0 mm 0.00 in0.0 mm 0.00 in0.0 mm
05:39 AM 66.7°F19.3°C 58.6°F14.8°C 75% 1.6 mph NW2.6 kmh NW 2.2 mph3.5 kmh 30.02 in1016.6 mb 0.00 in0.0 mm 0.00 in0.0 mm 0.00 in0.0 mm
05:34 AM 66.7°F19.3°C 58.6°F14.8°C 75% 0.7 mph W1.1 kmh W 2.2 mph3.5 kmh 30.02 in1016.6 mb 0.00 in0.0 mm 0.00 in0.0 mm 0.00 in0.0 mm
05:29 AM 66.6°F19.2°C 58.4°F14.7°C 75% 0.7 mph W1.1 kmh W 1.6 mph2.6 kmh 30.02 in1016.6 mb 0.00 in0.0 mm 0.00 in0.0 mm 0.00 in0.0 mm
05:24 AM 66.4°F19.1°C 58.2°F14.6°C 75% 0.7 mph W1.1 kmh W 1.6 mph2.6 kmh 30.01 in1016.3 mb 0.00 in0.0 mm 0.00 in0.0 mm 0.00 in0.0 mm
05:19 AM 66.4°F19.1°C 58.2°F14.6°C 75% 2.2 mph W3.5 kmh W 3.1 mph5.0 kmh 30.01 in1016.3 mb 0.00 in0.0 mm 0.00 in0.0 mm 0.00 in0.0 mm
05:14 AM 66.2°F19.0°C 58.0°F14.4°C 75% Calm Calm 0.7 mph1.1 kmh 30.01 in1016.3 mb 0.00 in0.0 mm 0.00 in0.0 mm 0.00 in0.0 mm
05:09 AM 66.2°F19.0°C 58.0°F14.4°C 75% 2.2 mph WNW3.5 kmh WNW 3.1 mph5.0 kmh 30.01 in1016.3 mb 0.00 in0.0 mm 0.00 in0.0 mm 0.00 in0.0 mm
05:04 AM 66.0°F18.9°C 58.2°F14.6°C 76% 1.6 mph W2.6 kmh W 3.1 mph5.0 kmh 30.01 in1016.3 mb 0.00 in0.0 mm 0.00 in0.0 mm 0.00 in0.0 mm
04:59 AM 66.0°F18.9°C 58.2°F14.6°C 76% 1.6 mph NW2.6 kmh NW 3.1 mph5.0 kmh 30.01 in1016.3 mb 0.00 in0.0 mm 0.00 in0.0 mm 0.00 in0.0 mm
04:54 AM 66.0°F18.9°C 58.2°F14.6°C 76% 1.6 mph NW2.6 kmh NW 3.1 mph5.0 kmh 30.01 in1016.3 mb 0.00 in0.0 mm 0.00 in0.0 mm 0.00 in0.0 mm
04:49 AM 66.2°F19.0°C 58.0°F14.4°C 75% 2.2 mph NW3.5 kmh NW 3.1 mph5.0 kmh 30.01 in1016.3 mb 0.00 in0.0 mm 0.00 in0.0 mm 0.00 in0.0 mm
04:44 AM 66.2°F19.0°C 58.0°F14.4°C 75% 2.2 mph NW3.5 kmh NW 3.1 mph5.0 kmh 30.01 in1016.3 mb 0.00 in0.0 mm 0.00 in0.0 mm 0.00 in0.0 mm
04:39 AM 66.2°F19.0°C 58.0°F14.4°C 75% 0.7 mph NW1.1 kmh NW 1.6 mph2.6 kmh 30.00 in1015.9 mb 0.00 in0.0 mm 0.00 in0.0 mm 0.00 in0.0 mm
04:34 AM 66.2°F19.0°C 58.0°F14.4°C 75% 0.7 mph W1.1 kmh W 2.2 mph3.5 kmh 30.00 in1015.9 mb 0.00 in0.0 mm 0.00 in0.0 mm 0.00 in0.0 mm
04:29 AM 66.4°F19.1°C 58.2°F14.6°C 75% Calm Calm 0.7 mph1.1 kmh 30.01 in1016.3 mb 0.00 in0.0 mm 0.00 in0.0 mm 0.00 in0.0 mm
04:24 AM 66.2°F19.0°C 58.0°F14.4°C 75% 0.7 mph NW1.1 kmh NW 1.6 mph2.6 kmh 30.00 in1015.9 mb 0.00 in0.0 mm 0.00 in0.0 mm 0.00 in0.0 mm
04:19 AM 66.2°F19.0°C 58.0°F14.4°C 75% 0.7 mph NW1.1 kmh NW 1.6 mph2.6 kmh 30.00 in1015.9 mb 0.00 in0.0 mm 0.00 in0.0 mm 0.00 in0.0 mm
04:14 AM 66.4°F19.1°C 58.2°F14.6°C 75% 1.6 mph NW2.6 kmh NW 3.1 mph5.0 kmh 30.00 in1015.9 mb 0.00 in0.0 mm 0.00 in0.0 mm 0.00 in0.0 mm
04:09 AM 66.4°F19.1°C 58.2°F14.6°C 75% Calm Calm 1.6 mph2.6 kmh 30.00 in1015.9 mb 0.00 in0.0 mm 0.00 in0.0 mm 0.00 in0.0 mm
04:04 AM 66.4°F19.1°C 57.8°F14.3°C 74% 2.2 mph W3.5 kmh W 3.1 mph5.0 kmh 30.00 in1015.9 mb 0.00 in0.0 mm 0.00 in0.0 mm 0.00 in0.0 mm
03:59 AM 66.6°F19.2°C 58.0°F14.4°C 74% 0.7 mph NW1.1 kmh NW 1.6 mph2.6 kmh 30.00 in1015.9 mb 0.00 in0.0 mm 0.00 in0.0 mm 0.00 in0.0 mm
03:54 AM 66.6°F19.2°C 58.0°F14.4°C 74% 0.7 mph NW1.1 kmh NW 1.6 mph2.6 kmh 30.00 in1015.9 mb 0.00 in0.0 mm 0.00 in0.0 mm 0.00 in0.0 mm
03:49 AM 66.6°F19.2°C 58.0°F14.4°C 74% 1.6 mph W2.6 kmh W 3.1 mph5.0 kmh 30.00 in1015.9 mb 0.00 in0.0 mm 0.00 in0.0 mm 0.00 in0.0 mm
03:44 AM 66.7°F19.3°C 58.2°F14.6°C 74% 1.6 mph WNW2.6 kmh WNW 2.2 mph3.5 kmh 30.00 in1015.9 mb 0.00 in0.0 mm 0.00 in0.0 mm 0.00 in0.0 mm
03:39 AM 66.7°F19.3°C 58.2°F14.6°C 74% 0.7 mph W1.1 kmh W 1.6 mph2.6 kmh 30.00 in1015.9 mb 0.00 in0.0 mm 0.00 in0.0 mm 0.00 in0.0 mm
03:34 AM 66.7°F19.3°C 58.2°F14.6°C 74% 0.7 mph 1.1 kmh 1.6 mph2.6 kmh 30.00 in1015.9 mb 0.00 in0.0 mm 0.00 in0.0 mm 0.00 in0.0 mm
03:29 AM 66.7°F19.3°C 58.2°F14.6°C 74% 1.6 mph NW2.6 kmh NW 3.8 mph6.1 kmh 29.99 in1015.6 mb 0.00 in0.0 mm 0.00 in0.0 mm 0.00 in0.0 mm
03:24 AM 66.9°F19.4°C 58.4°F14.7°C 74% 1.6 mph NW2.6 kmh NW 2.2 mph3.5 kmh 29.99 in1015.6 mb 0.00 in0.0 mm 0.00 in0.0 mm 0.00 in0.0 mm
03:19 AM 66.9°F19.4°C 58.4°F14.7°C 74% 2.2 mph NW3.5 kmh NW 3.8 mph6.1 kmh 29.99 in1015.6 mb 0.00 in0.0 mm 0.00 in0.0 mm 0.00 in0.0 mm
03:14 AM 66.9°F19.4°C 58.4°F14.7°C 74% 0.7 mph 1.1 kmh 1.6 mph2.6 kmh 29.99 in1015.6 mb 0.00 in0.0 mm 0.00 in0.0 mm 0.00 in0.0 mm
03:09 AM 66.9°F19.4°C 58.4°F14.7°C 74% 0.7 mph NW1.1 kmh NW 2.2 mph3.5 kmh 30.00 in1015.9 mb 0.00 in0.0 mm 0.00 in0.0 mm 0.00 in0.0 mm
03:04 AM 66.9°F19.4°C 58.4°F14.7°C 74% 2.2 mph NW3.5 kmh NW 3.1 mph5.0 kmh 29.99 in1015.6 mb 0.00 in0.0 mm 0.00 in0.0 mm 0.00 in0.0 mm
02:59 AM 66.9°F19.4°C 58.4°F14.7°C 74% 2.2 mph NW3.5 kmh NW 3.8 mph6.1 kmh 29.98 in1015.2 mb 0.00 in0.0 mm 0.00 in0.0 mm 0.00 in0.0 mm
02:54 AM 66.9°F19.4°C 58.4°F14.7°C 74% 1.6 mph NW2.6 kmh NW 3.1 mph5.0 kmh 29.98 in1015.2 mb 0.00 in0.0 mm 0.00 in0.0 mm 0.00 in0.0 mm
02:49 AM 67.1°F19.5°C 58.5°F14.7°C 74% 1.6 mph W2.6 kmh W 3.1 mph5.0 kmh 29.99 in1015.6 mb 0.00 in0.0 mm 0.00 in0.0 mm 0.00 in0.0 mm
02:44 AM 67.1°F19.5°C 58.1°F14.5°C 73% 1.6 mph NW2.6 kmh NW 2.2 mph3.5 kmh 29.98 in1015.2 mb 0.00 in0.0 mm 0.00 in0.0 mm 0.00 in0.0 mm
02:39 AM 67.3°F19.6°C 58.3°F14.6°C 73% 0.7 mph W1.1 kmh W 2.2 mph3.5 kmh 29.98 in1015.2 mb 0.00 in0.0 mm 0.00 in0.0 mm 0.00 in0.0 mm
02:34 AM 67.3°F19.6°C 58.3°F14.6°C 73% 0.7 mph NW1.1 kmh NW 1.6 mph2.6 kmh 29.99 in1015.6 mb 0.00 in0.0 mm 0.00 in0.0 mm 0.00 in0.0 mm
02:29 AM 67.3°F19.6°C 58.3°F14.6°C 73% Calm Calm 0.7 mph1.1 kmh 29.98 in1015.2 mb 0.00 in0.0 mm 0.00 in0.0 mm 0.00 in0.0 mm
02:24 AM 67.5°F19.7°C 58.5°F14.7°C 73% 1.6 mph NW2.6 kmh NW 2.2 mph3.5 kmh 29.98 in1015.2 mb 0.00 in0.0 mm 0.00 in0.0 mm 0.00 in0.0 mm
02:19 AM 67.5°F19.7°C 58.5°F14.7°C 73% 1.6 mph NW2.6 kmh NW 2.2 mph3.5 kmh 29.98 in1015.2 mb 0.00 in0.0 mm 0.00 in0.0 mm 0.00 in0.0 mm
02:14 AM 67.6°F19.8°C 58.3°F14.6°C 72% 0.7 mph NW1.1 kmh NW 2.2 mph3.5 kmh 29.99 in1015.6 mb 0.00 in0.0 mm 0.00 in0.0 mm 0.00 in0.0 mm
02:09 AM 67.6°F19.8°C 58.3°F14.6°C 72% 1.6 mph NW2.6 kmh NW 3.1 mph5.0 kmh 29.98 in1015.2 mb 0.00 in0.0 mm 0.00 in0.0 mm 0.00 in0.0 mm
02:04 AM 67.6°F19.8°C 58.3°F14.6°C 72% 0.7 mph NW1.1 kmh NW 1.6 mph2.6 kmh 29.98 in1015.2 mb 0.00 in0.0 mm 0.00 in0.0 mm 0.00 in0.0 mm
01:59 AM 67.8°F19.9°C 58.5°F14.7°C 72% 1.6 mph NW2.6 kmh NW 2.2 mph3.5 kmh 29.98 in1015.2 mb 0.00 in0.0 mm 0.00 in0.0 mm 0.00 in0.0 mm
01:54 AM 67.8°F19.9°C 58.5°F14.7°C 72% 0.7 mph NW1.1 kmh NW 1.6 mph2.6 kmh 29.98 in1015.2 mb 0.00 in0.0 mm 0.00 in0.0 mm 0.00 in0.0 mm
01:49 AM 68.0°F20.0°C 58.2°F14.6°C 71% Calm Calm 0.7 mph1.1 kmh 29.98 in1015.2 mb 0.00 in0.0 mm 0.00 in0.0 mm 0.00 in0.0 mm
01:44 AM 68.0°F20.0°C 58.2°F14.6°C 71% 1.6 mph NW2.6 kmh NW 2.2 mph3.5 kmh 29.98 in1015.2 mb 0.00 in0.0 mm 0.00 in0.0 mm 0.00 in0.0 mm
01:39 AM 68.0°F20.0°C 57.8°F14.3°C 70% 0.7 mph W1.1 kmh W 1.6 mph2.6 kmh 29.98 in1015.2 mb 0.00 in0.0 mm 0.00 in0.0 mm 0.00 in0.0 mm
01:34 AM 68.2°F20.1°C 58.0°F14.4°C 70% 0.7 mph NW1.1 kmh NW 2.2 mph3.5 kmh 29.98 in1015.2 mb 0.00 in0.0 mm 0.00 in0.0 mm 0.00 in0.0 mm
01:29 AM 68.2°F20.1°C 58.0°F14.4°C 70% 0.7 mph W1.1 kmh W 2.2 mph3.5 kmh 29.98 in1015.2 mb 0.00 in0.0 mm 0.00 in0.0 mm 0.00 in0.0 mm
01:24 AM 68.2°F20.1°C 58.0°F14.4°C 70% Calm Calm 0.7 mph1.1 kmh 29.98 in1015.2 mb 0.00 in0.0 mm 0.00 in0.0 mm 0.00 in0.0 mm
01:19 AM 68.2°F20.1°C 58.0°F14.4°C 70% 0.7 mph NW1.1 kmh NW 1.6 mph2.6 kmh 29.98 in1015.2 mb 0.00 in0.0 mm 0.00 in0.0 mm 0.00 in0.0 mm
01:14 AM 68.4°F20.2°C 58.2°F14.6°C 70% 0.7 mph W1.1 kmh W 2.2 mph3.5 kmh 29.98 in1015.2 mb 0.00 in0.0 mm 0.00 in0.0 mm 0.00 in0.0 mm
01:09 AM 68.4°F20.2°C 58.2°F14.6°C 70% 0.7 mph NW1.1 kmh NW 1.6 mph2.6 kmh 29.98 in1015.2 mb 0.00 in0.0 mm 0.00 in0.0 mm 0.00 in0.0 mm
01:04 AM 68.5°F20.3°C 58.4°F14.7°C 70% Calm Calm 0.7 mph1.1 kmh 29.98 in1015.2 mb 0.00 in0.0 mm 0.00 in0.0 mm 0.00 in0.0 mm
12:59 AM 68.5°F20.3°C 58.4°F14.7°C 70% 0.7 mph W1.1 kmh W 1.6 mph2.6 kmh 29.98 in1015.2 mb 0.00 in0.0 mm 0.00 in0.0 mm 0.00 in0.0 mm
12:54 AM 68.5°F20.3°C 58.4°F14.7°C 70% 1.6 mph NW2.6 kmh NW 2.2 mph3.5 kmh 29.98 in1015.2 mb 0.00 in0.0 mm 0.00 in0.0 mm 0.00 in0.0 mm
12:49 AM 68.7°F20.4°C 58.1°F14.5°C 69% 0.7 mph NW1.1 kmh NW 3.1 mph5.0 kmh 29.98 in1015.2 mb 0.00 in0.0 mm 0.00 in0.0 mm 0.00 in0.0 mm
12:44 AM 68.9°F20.5°C 58.3°F14.6°C 69% 0.7 mph 1.1 kmh 2.2 mph3.5 kmh 29.98 in1015.2 mb 0.00 in0.0 mm 0.00 in0.0 mm 0.00 in0.0 mm
12:39 AM 68.9°F20.5°C 58.3°F14.6°C 69% 1.6 mph NW2.6 kmh NW 2.2 mph3.5 kmh 29.98 in1015.2 mb 0.00 in0.0 mm 0.00 in0.0 mm 0.00 in0.0 mm
12:34 AM 69.1°F20.6°C 58.5°F14.7°C 69% Calm Calm 0.7 mph1.1 kmh 29.98 in1015.2 mb 0.00 in0.0 mm 0.00 in0.0 mm 0.00 in0.0 mm
12:29 AM 69.1°F20.6°C 58.1°F14.5°C 68% 0.7 mph NW1.1 kmh NW 2.2 mph3.5 kmh 29.97 in1014.9 mb 0.00 in0.0 mm 0.00 in0.0 mm 0.00 in0.0 mm
12:24 AM 69.3°F20.7°C 58.2°F14.6°C 68% 1.6 mph W2.6 kmh W 2.2 mph3.5 kmh 29.98 in1015.2 mb 0.00 in0.0 mm 0.00 in0.0 mm 0.00 in0.0 mm
12:19 AM 69.3°F20.7°C 58.2°F14.6°C 68% 1.6 mph W2.6 kmh W 3.1 mph5.0 kmh 29.97 in1014.9 mb 0.00 in0.0 mm 0.00 in0.0 mm 0.00 in0.0 mm
12:14 AM 69.3°F20.7°C 58.2°F14.6°C 68% 1.6 mph NW2.6 kmh NW 3.1 mph5.0 kmh 29.98 in1015.2 mb 0.00 in0.0 mm 0.00 in0.0 mm 0.00 in0.0 mm
12:09 AM 69.4°F20.8°C 58.0°F14.4°C 67% Calm Calm 1.6 mph2.6 kmh 29.97 in1014.9 mb 0.00 in0.0 mm 0.00 in0.0 mm 0.00 in0.0 mm
12:04 AM 69.6°F20.9°C 58.2°F14.6°C 67% 0.7 mph NW1.1 kmh NW 2.2 mph3.5 kmh 29.97 in1014.9 mb 0.00 in0.0 mm 0.00 in0.0 mm 0.00 in0.0 mm